Ben Bolt, Texas
Current Conditions -  °F | °C
As of 12:53 PM on Saturday 20 Dec 2014 (Local Time) from KALI Reporting Station
Overcast Overcast  
Wind Chill: 13°   Ceiling: 1100
Heat Index: 13°   Visibility: 10mi
Dew Point:   Wind: 3mph
Humidity: 77%   Direction: NA
Pressure: 30.18"   Gusts: NA
Location:  27.65°N, 98.08°W
Report Text: KALI 201853Z AUTO VRB03KT 10SM OVC011 13/09 A3018 RMK AO2 SLP221 T01280089
Loading
Personal Weather Stations






























Interactive Weather Map New forecast layout! Learn more

10-Day Weather Forecast

Advertisements
Track Severe Weather on mobile